Time;durP1;ratioP1;P1;durP2;ratioP2;P2;SDS_P1;SDS_P2;PMS_P1;PMS_P2;Temp;Humidity;BMP_temperature;BMP_pressure;BME280_temperature;BME280_humidity;BME280_pressure;Samples;Min_cycle;Max_cycle;Signal;HPM_P1;HPM_P2
2021/03/09 00:01:16;;;;;;;19.75;12.30;;;;;;;4.19;34.71;94685.25;5115219;23;20044;-83
2021/03/09 00:03:17;;;;;;;23.80;11.75;;;;;;;4.17;34.66;94684.56;5116566;23;20079;-82
2021/03/09 00:05:18;;;;;;;26.02;13.20;;;;;;;4.21;34.98;94685.16;5142250;23;20028;-83
2021/03/09 00:07:20;;;;;;;23.15;13.15;;;;;;;4.22;34.53;94690.22;5091730;23;20452;-84
2021/03/09 00:09:21;;;;;;;24.08;12.48;;;;;;;4.26;35.41;94680.44;5122787;23;20556;-83
2021/03/09 00:11:22;;;;;;;23.90;12.75;;;;;;;4.22;35.43;94687.63;5155100;23;20030;-82
2021/03/09 00:13:23;;;;;;;24.50;12.93;;;;;;;4.22;36.04;94697.19;5119256;23;20021;-83
2021/03/09 00:15:24;;;;;;;24.55;13.27;;;;;;;4.21;35.69;94695.53;5116135;23;20033;-84
2021/03/09 00:17:25;;;;;;;23.08;13.82;;;;;;;4.16;35.96;94702.84;5142214;23;20021;-86
2021/03/09 00:19:27;;;;;;;27.23;13.75;;;;;;;4.13;36.27;94708.25;5142246;23;20060;-84
2021/03/09 00:21:28;;;;;;;24.52;13.35;;;;;;;4.10;36.42;94701.56;5141961;23;20024;-84
2021/03/09 00:23:29;;;;;;;26.20;13.82;;;;;;;4.21;36.14;94703.31;5143063;23;20397;-85
2021/03/09 00:25:31;;;;;;;26.65;13.90;;;;;;;4.12;36.69;94706.63;5144382;23;20028;-85
2021/03/09 00:27:32;;;;;;;23.80;13.88;;;;;;;4.00;37.28;94704.06;5144988;23;20375;-84
2021/03/09 00:29:33;;;;;;;21.83;12.18;;;;;;;3.86;37.05;94702.50;5117178;23;20024;-84
2021/03/09 00:31:35;;;;;;;22.48;12.38;;;;;;;3.75;37.38;94701.69;5141465;23;20020;-83
2021/03/09 00:33:36;;;;;;;22.40;11.80;;;;;;;3.57;37.73;94696.13;5116578;23;20029;-83
2021/03/09 00:35:37;;;;;;;23.10;12.20;;;;;;;3.34;38.18;94705.66;5116547;23;20025;-84
2021/03/09 00:37:38;;;;;;;21.10;11.93;;;;;;;3.05;38.02;94701.72;5141211;23;20021;-84
2021/03/09 00:39:40;;;;;;;23.58;12.48;;;;;;;3.08;38.19;94709.25;5142205;23;20024;-84
2021/03/09 00:41:41;;;;;;;23.63;11.80;;;;;;;3.27;38.15;94706.13;5142200;23;20016;-86
2021/03/09 00:43:43;;;;;;;23.65;11.95;;;;;;;3.46;37.96;94705.56;5143063;23;20021;-85
2021/03/09 00:45:44;;;;;;;22.65;11.15;;;;;;;3.67;37.06;94707.44;5142546;23;20354;-82
2021/03/09 00:47:45;;;;;;;19.83;11.63;;;;;;;3.87;37.06;94708.50;5115709;23;20024;-85
2021/03/09 00:49:47;;;;;;;19.92;11.93;;;;;;;4.00;36.53;94705.78;5143415;23;20028;-83
2021/03/09 00:51:48;;;;;;;19.30;11.55;;;;;;;4.12;37.01;94701.44;5143086;23;20023;-84
2021/03/09 00:53:49;;;;;;;21.05;12.23;;;;;;;4.20;36.81;94707.66;5144028;23;20167;-83
2021/03/09 00:55:50;;;;;;;23.58;11.65;;;;;;;4.25;36.46;94700.34;5143673;23;20024;-83
2021/03/09 00:57:58;;;;;;;22.80;12.93;;;;;;;4.32;36.98;94705.88;5116673;23;20083;-84
2021/03/09 01:00:00;;;;;;;30.23;16.50;;;;;;;4.23;36.18;94698.81;5116712;23;20021;-83
2021/03/09 01:02:01;;;;;;;24.50;13.10;;;;;;;4.29;37.11;94696.56;5115035;23;20025;-84
2021/03/09 01:04:03;;;;;;;21.17;12.13;;;;;;;4.28;37.76;94694.94;5142956;23;20311;-84
2021/03/09 01:06:04;;;;;;;21.05;12.95;;;;;;;4.35;37.26;94697.06;5142921;23;20031;-85
2021/03/09 01:08:05;;;;;;;21.75;12.70;;;;;;;4.37;37.57;94695.97;5143717;23;20043;-83
2021/03/09 01:10:07;;;;;;;23.55;14.05;;;;;;;4.40;37.66;94700.09;5144098;23;20021;-83
2021/03/09 01:12:09;;;;;;;24.20;13.50;;;;;;;4.44;37.87;94696.31;5117231;23;20021;-84
2021/03/09 01:14:17;;;;;;;30.85;15.02;;;;;;;4.46;37.73;94699.63;4254218;27;20341;-84
2021/03/09 01:16:18;;;;;;;26.00;15.40;;;;;;;4.44;37.18;94697.13;4262970;27;20468;-83
2021/03/09 01:18:20;;;;;;;31.20;17.85;;;;;;;4.40;36.59;94703.50;4261355;27;20074;-84
2021/03/09 01:20:21;;;;;;;35.13;17.58;;;;;;;4.27;37.05;94692.47;4240727;27;20053;-84
2021/03/09 01:22:22;;;;;;;27.08;15.35;;;;;;;4.19;37.31;94697.41;4271874;27;20043;-84
2021/03/09 01:24:23;;;;;;;22.33;13.55;;;;;;;4.27;38.00;94695.88;4238865;28;20054;-85
2021/03/09 01:26:25;;;;;;;33.30;17.30;;;;;;;4.20;37.07;94691.31;4251601;27;20069;-82
2021/03/09 01:28:26;;;;;;;33.70;17.35;;;;;;;3.94;36.72;94695.94;4268660;27;20518;-84
2021/03/09 01:30:27;;;;;;;33.53;18.25;;;;;;;3.85;36.79;94697.44;4246384;27;20066;-85
2021/03/09 01:35:44;;;;;;;27.00;15.37;;;;;;;3.84;37.54;94699.22;4241106;27;20050;-70
2021/03/09 01:37:45;;;;;;;33.28;17.60;;;;;;;3.43;37.32;94697.19;4256200;27;20292;-71
2021/03/09 01:39:47;;;;;;;32.30;16.42;;;;;;;3.14;37.56;94702.78;4242568;27;20381;-70
2021/03/09 01:41:48;;;;;;;27.88;14.40;;;;;;;2.48;37.94;94712.75;4255698;27;20559;-71
2021/03/09 01:43:49;;;;;;;31.35;14.85;;;;;;;2.69;38.35;94710.41;4241339;27;20049;-71
2021/03/09 01:45:51;;;;;;;29.02;15.60;;;;;;;2.97;38.05;94708.38;4233670;27;20047;-70
2021/03/09 01:48:08;;;;;;;31.95;15.68;;;;;;;3.26;37.25;94706.22;4255020;27;20417;-72
2021/03/09 01:50:12;;;;;;;28.38;16.42;;;;;;;3.45;37.19;94708.25;4238315;27;20055;-70
2021/03/09 01:52:13;;;;;;;28.80;16.95;;;;;;;3.58;37.23;94705.56;4228366;27;20048;-71
2021/03/09 01:54:15;;;;;;;26.38;15.98;;;;;;;3.70;37.13;94707.22;4230504;27;20063;-71
2021/03/09 01:56:16;;;;;;;27.63;15.82;;;;;;;3.82;36.71;94706.28;4222995;28;20060;-71
2021/03/09 01:58:18;;;;;;;30.67;15.05;;;;;;;3.89;36.40;94710.06;4226630;28;20055;-71
2021/03/09 02:00:20;;;;;;;25.10;13.82;;;;;;;3.91;35.75;94704.75;4227965;28;20047;-70
2021/03/09 02:02:22;;;;;;;25.58;14.85;;;;;;;3.97;36.63;94700.88;4229536;28;20047;-70
2021/03/09 02:04:24;;;;;;;24.20;13.30;;;;;;;4.01;36.80;94700.50;4218017;28;20133;-71
2021/03/09 02:06:25;;;;;;;29.02;14.45;;;;;;;3.99;36.90;94694.59;4239912;27;20531;-71
2021/03/09 02:08:27;;;;;;;26.08;13.55;;;;;;;3.98;36.72;94698.16;4238988;28;20052;-70
2021/03/09 02:10:28;;;;;;;27.90;13.57;;;;;;;3.93;36.94;94691.66;4227949;27;20100;-72
2021/03/09 02:12:35;;;;;;;21.00;12.30;;;;;;;3.94;36.77;94696.75;4223285;28;20112;-71
2021/03/09 02:14:39;;;;;;;23.60;12.95;;;;;;;3.87;36.78;94687.78;4253781;27;20474;-71
2021/03/09 02:16:50;;;;;;;22.10;12.48;;;;;;;3.87;36.69;94682.59;4224755;28;20434;-70
2021/03/09 02:19:40;;;;;;;22.83;13.02;;;;;;;3.87;36.59;94692.97;4230877;28;20098;-70
2021/03/09 02:21:52;;;;;;;22.52;12.75;;;;;;;3.79;37.16;94690.16;4154192;28;20045;-72
2021/03/09 02:24:18;;;;;;;20.42;11.98;;;;;;;3.76;36.99;94695.56;4216208;28;20430;-71
2021/03/09 02:26:28;;;;;;;23.67;12.73;;;;;;;3.77;37.15;94692.84;4237113;27;20053;-71
2021/03/09 02:28:39;;;;;;;25.45;13.68;;;;;;;3.80;37.15;94700.38;4216785;27;20052;-71
2021/03/09 02:30:43;;;;;;;22.80;13.52;;;;;;;3.81;37.50;94699.47;4204503;28;20563;-69
2021/03/09 02:32:53;;;;;;;20.88;11.50;;;;;;;3.71;37.50;94702.88;4205245;28;20554;-71
2021/03/09 02:34:57;;;;;;;25.05;13.38;;;;;;;3.40;38.05;94702.59;4211964;28;20086;-70
2021/03/09 02:37:01;;;;;;;24.73;14.15;;;;;;;3.42;38.21;94701.56;4209893;28;20125;-72
2021/03/09 02:39:06;;;;;;;25.80;13.88;;;;;;;3.26;38.72;94701.84;4194732;28;20055;-70
2021/03/09 02:41:10;;;;;;;25.33;14.55;;;;;;;3.16;38.90;94702.66;4193472;28;20048;-69
2021/03/09 02:43:15;;;;;;;26.75;13.68;;;;;;;2.98;39.11;94705.66;4217593;28;20093;-70
2021/03/09 02:45:20;;;;;;;26.33;13.73;;;;;;;3.08;39.25;94708.41;4221057;28;20050;-71
2021/03/09 02:47:21;;;;;;;26.83;13.88;;;;;;;3.16;39.10;94713.88;4209335;28;20481;-72
2021/03/09 02:49:25;;;;;;;24.85;14.20;;;;;;;3.31;38.86;94711.03;4229198;28;20050;-70
2021/03/09 02:51:27;;;;;;;23.55;13.30;;;;;;;3.45;38.72;94713.44;4210483;28;20120;-71
2021/03/09 02:53:31;;;;;;;24.38;13.43;;;;;;;3.58;38.45;94713.34;4210908;28;20040;-71
2021/03/09 02:55:33;;;;;;;22.35;11.88;;;;;;;3.67;37.97;94710.84;4209596;28;20427;-70
2021/03/09 02:57:35;;;;;;;25.02;12.30;;;;;;;3.76;37.83;94706.75;4211610;28;20110;-71
2021/03/09 02:59:37;;;;;;;24.38;12.52;;;;;;;3.76;38.01;94705.91;4208677;28;20048;-71
2021/03/09 03:01:41;;;;;;;22.60;12.63;;;;;;;3.81;38.19;94709.00;4217179;28;20137;-71
2021/03/09 03:03:44;;;;;;;22.85;12.52;;;;;;;3.85;37.89;94715.56;4238164;27;20056;-70
2021/03/09 03:05:47;;;;;;;23.10;13.15;;;;;;;3.83;37.53;94707.94;4228061;28;20193;-70
2021/03/09 03:07:48;;;;;;;23.13;13.43;;;;;;;3.91;37.67;94712.50;4211220;28;20126;-70
2021/03/09 03:09:50;;;;;;;22.88;13.80;;;;;;;3.89;37.99;94711.81;4211581;28;20048;-70
2021/03/09 03:11:53;;;;;;;26.63;13.73;;;;;;;3.86;38.16;94709.47;4209847;28;20166;-70
2021/03/09 03:13:55;;;;;;;25.88;14.95;;;;;;;3.89;38.00;94711.81;4222585;28;20060;-71
2021/03/09 03:15:58;;;;;;;28.30;13.80;;;;;;;3.91;38.13;94715.09;4211287;28;20404;-70
2021/03/09 03:17:59;;;;;;;30.70;13.15;;;;;;;3.86;38.32;94712.88;4211698;28;20056;-83
2021/03/09 03:20:01;;;;;;;25.20;12.93;;;;;;;3.78;38.06;94709.22;4213251;28;20087;-83
2021/03/09 03:22:03;;;;;;;24.63;12.65;;;;;;;3.64;38.16;94711.09;4214660;28;20059;-85
2021/03/09 03:24:06;;;;;;;25.25;14.68;;;;;;;3.40;38.56;94710.34;4196858;28;20334;-84
2021/03/09 03:26:10;;;;;;;31.95;17.10;;;;;;;3.25;39.56;94717.53;4204770;28;20052;-84
2021/03/09 03:28:12;;;;;;;33.45;16.02;;;;;;;3.04;40.14;94725.09;4221078;28;20059;-84
2021/03/09 03:30:15;;;;;;;27.05;15.05;;;;;;;2.90;40.45;94725.28;4200681;28;20067;-83
2021/03/09 03:32:17;;;;;;;30.00;16.20;;;;;;;2.88;40.26;94725.38;4211922;28;20131;-84
2021/03/09 03:34:19;;;;;;;30.38;16.83;;;;;;;2.83;40.81;94725.72;4213322;28;20040;-83
2021/03/09 03:36:20;;;;;;;30.00;16.10;;;;;;;2.87;41.17;94719.41;4230841;28;20143;-84
2021/03/09 03:38:21;;;;;;;31.48;17.20;;;;;;;2.98;40.85;94723.78;4213945;28;20111;-85
2021/03/09 03:40:23;;;;;;;29.90;15.82;;;;;;;3.10;40.34;94736.75;4231512;28;20043;-84
2021/03/09 03:42:25;;;;;;;40.17;17.13;;;;;;;3.23;39.87;94738.34;4213081;28;20103;-84
2021/03/09 03:44:27;;;;;;;29.17;16.77;;;;;;;3.34;39.59;94737.53;4213405;28;20044;-84
2021/03/09 03:46:28;;;;;;;31.88;15.23;;;;;;;3.43;39.51;94741.22;4230484;28;20059;-84
2021/03/09 03:48:34;;;;;;;27.10;14.63;;;;;;;3.48;39.74;94739.09;4230111;28;20047;-83
2021/03/09 03:50:35;;;;;;;27.33;15.40;;;;;;;3.51;39.50;94744.06;4231410;28;20051;-84
2021/03/09 03:53:10;;;;;;;27.05;15.80;;;;;;;3.56;39.23;94734.16;4215225;28;20422;-82
2021/03/09 03:55:30;;;;;;;27.30;15.15;;;;;;;3.62;39.70;94736.31;4231478;27;20084;-83
2021/03/09 03:57:39;;;;;;;29.48;15.55;;;;;;;3.64;39.80;94734.41;4242899;27;20047;-69
2021/03/09 03:59:42;;;;;;;26.48;15.05;;;;;;;3.65;40.34;94736.06;4224217;28;20063;-71
2021/03/09 04:01:44;;;;;;;28.65;15.20;;;;;;;3.65;40.16;94723.09;4181832;28;20053;-69
2021/03/09 04:03:47;;;;;;;26.45;14.55;;;;;;;3.66;40.27;94732.53;4219170;28;20051;-72
2021/03/09 04:05:49;;;;;;;27.58;14.85;;;;;;;3.75;39.99;94725.84;4226053;28;20055;-71
2021/03/09 04:07:51;;;;;;;28.38;15.07;;;;;;;3.81;40.30;94729.72;4211976;28;20071;-71
2021/03/09 04:09:55;;;;;;;26.75;15.18;;;;;;;3.83;40.14;94730.41;4208999;28;20048;-71
2021/03/09 04:11:56;;;;;;;24.20;13.65;;;;;;;3.79;40.49;94731.63;4215844;28;20040;-71
2021/03/09 04:13:58;;;;;;;31.63;15.88;;;;;;;3.70;40.48;94727.97;4205685;28;20098;-70
2021/03/09 04:16:01;;;;;;;34.67;16.45;;;;;;;3.68;40.87;94727.25;4185229;28;20511;-72
2021/03/09 04:18:05;;;;;;;34.20;16.25;;;;;;;3.45;40.62;94739.34;4222511;28;20483;-72
2021/03/09 04:20:12;;;;;;;25.80;15.55;;;;;;;3.33;40.90;94746.25;4202490;28;20113;-70
2021/03/09 04:22:15;;;;;;;26.75;14.98;;;;;;;3.23;40.84;94746.13;4214915;28;20487;-70
2021/03/09 04:24:17;;;;;;;30.70;15.50;;;;;;;2.89;41.66;94746.94;4221566;28;20079;-69
2021/03/09 04:26:19;;;;;;;31.17;16.33;;;;;;;2.41;42.61;94756.31;4192863;28;20063;-71
2021/03/09 04:28:21;;;;;;;30.58;15.73;;;;;;;2.05;44.08;94757.94;4217445;28;20052;-70
2021/03/09 04:30:23;;;;;;;29.55;17.08;;;;;;;1.95;44.28;94759.50;4218827;27;20234;-71
2021/03/09 04:32:25;;;;;;;33.80;16.63;;;;;;;2.14;44.33;94760.84;4208454;28;20052;-71
2021/03/09 04:34:27;;;;;;;31.35;15.90;;;;;;;2.36;43.30;94763.56;4217903;28;20122;-71
2021/03/09 04:36:29;;;;;;;28.50;16.05;;;;;;;2.63;43.46;94762.56;4192524;28;20114;-69
2021/03/09 04:38:31;;;;;;;30.33;15.57;;;;;;;2.77;42.91;94756.38;4209620;28;20062;-71
2021/03/09 04:40:33;;;;;;;27.08;14.75;;;;;;;2.89;42.66;94746.94;4215729;28;20059;-69
2021/03/09 04:42:35;;;;;;;31.45;16.25;;;;;;;2.98;42.46;94751.44;4202402;28;20565;-73
2021/03/09 04:44:37;;;;;;;31.23;16.25;;;;;;;2.97;42.40;94749.78;4216309;28;20066;-70
2021/03/09 04:46:40;;;;;;;28.08;15.50;;;;;;;2.79;42.34;94747.56;4206273;28;20245;-71
2021/03/09 04:48:42;;;;;;;33.22;16.23;;;;;;;2.72;43.09;94756.72;4203429;28;20139;-71
2021/03/09 04:50:45;;;;;;;29.67;14.68;;;;;;;2.67;43.32;94758.81;4206485;28;20054;-71
2021/03/09 04:52:47;;;;;;;30.40;16.20;;;;;;;2.60;43.54;94755.00;4192908;28;20048;-69
2021/03/09 04:54:49;;;;;;;29.88;15.68;;;;;;;2.48;44.14;94769.66;4209300;28;20179;-70
2021/03/09 04:56:50;;;;;;;33.85;16.48;;;;;;;2.22;44.02;94766.31;4226301;28;20047;-69
2021/03/09 04:58:51;;;;;;;28.42;15.75;;;;;;;2.08;44.72;94764.66;4208320;28;20048;-70
2021/03/09 05:00:53;;;;;;;27.42;16.30;;;;;;;2.11;45.26;94761.03;4208827;28;20551;-72
2021/03/09 05:02:54;;;;;;;34.42;16.75;;;;;;;2.25;44.88;94764.31;4209807;28;20266;-70
2021/03/09 05:04:56;;;;;;;35.50;16.58;;;;;;;2.42;44.72;94767.50;4225928;28;20480;-70
2021/03/09 05:06:58;;;;;;;34.85;17.10;;;;;;;2.59;43.92;94766.31;4218191;28;20172;-69
2021/03/09 05:08:59;;;;;;;28.92;16.33;;;;;;;2.80;43.49;94764.78;4208882;28;20056;-70
2021/03/09 05:11:00;;;;;;;25.45;15.75;;;;;;;2.97;43.55;94758.38;4216112;28;20052;-70
2021/03/09 05:13:05;;;;;;;30.90;15.55;;;;;;;3.11;42.87;94757.34;4197428;28;20134;-71
2021/03/09 05:15:07;;;;;;;29.02;16.55;;;;;;;3.21;42.90;94753.16;4227756;28;20047;-74
2021/03/09 05:17:08;;;;;;;34.17;16.58;;;;;;;3.33;42.52;94759.19;4219871;28;20054;-84
2021/03/09 05:19:09;;;;;;;37.40;16.30;;;;;;;3.40;42.62;94760.41;4200484;28;20520;-85
2021/03/09 05:21:10;;;;;;;29.83;16.88;;;;;;;3.42;42.49;94776.66;4213756;28;20052;-83
2021/03/09 05:23:11;;;;;;;28.85;15.85;;;;;;;3.48;42.49;94760.66;4226028;28;20044;-85
2021/03/09 05:25:14;;;;;;;28.65;15.88;;;;;;;3.55;42.46;94755.00;4197406;28;20052;-88
2021/03/09 05:27:16;;;;;;;34.65;17.00;;;;;;;3.66;42.13;94748.09;4225794;28;20059;-84
2021/03/09 05:29:17;;;;;;;36.30;16.52;;;;;;;3.75;42.15;94762.09;4231614;28;20078;-86
2021/03/09 05:31:18;;;;;;;32.70;16.25;;;;;;;3.82;42.00;94767.66;4220383;28;20185;-82
2021/03/09 05:33:19;;;;;;;35.25;17.63;;;;;;;3.74;41.79;94760.44;4228624;28;20035;-84
2021/03/09 05:35:21;;;;;;;32.17;17.05;;;;;;;3.75;42.05;94762.09;4243851;28;20044;-86
2021/03/09 05:37:22;;;;;;;30.90;16.05;;;;;;;3.81;42.12;94759.06;4204834;28;20461;-84
2021/03/09 05:39:23;;;;;;;38.60;17.52;;;;;;;3.98;43.83;94760.38;4220718;28;20138;-84
2021/03/09 05:41:25;;;;;;;32.85;16.77;;;;;;;4.06;41.70;94750.22;4199090;28;20052;-87
2021/03/09 05:43:26;;;;;;;31.08;16.95;;;;;;;4.13;41.55;94752.34;4208699;28;20089;-87
2021/03/09 05:45:28;;;;;;;31.80;16.10;;;;;;;4.12;41.21;94758.47;4214600;28;20058;-85
2021/03/09 05:47:29;;;;;;;38.15;20.45;;;;;;;4.02;42.15;94761.78;4196979;28;20074;-86
2021/03/09 05:49:31;;;;;;;37.40;21.48;;;;;;;3.88;42.41;94770.59;4211210;28;20460;-86
2021/03/09 05:51:32;;;;;;;42.38;22.30;;;;;;;3.79;43.05;94763.53;4229855;28;20055;-84
2021/03/09 05:53:33;;;;;;;43.53;22.45;;;;;;;3.54;43.26;94767.13;4221876;28;20473;-83
2021/03/09 05:55:34;;;;;;;44.65;22.60;;;;;;;3.46;43.43;94769.47;4211575;28;20052;-70
2021/03/09 05:57:36;;;;;;;44.15;23.55;;;;;;;3.51;43.61;94769.97;4176960;28;20115;-71
2021/03/09 05:59:37;;;;;;;46.85;24.13;;;;;;;3.61;43.52;94763.13;4209373;28;20044;-72
2021/03/09 06:01:38;;;;;;;37.60;21.98;;;;;;;3.74;43.34;94770.00;4209843;28;20087;-71
2021/03/09 06:03:40;;;;;;;46.15;23.58;;;;;;;3.85;42.29;94762.22;4212247;28;20044;-70
2021/03/09 06:05:41;;;;;;;42.95;22.70;;;;;;;4.05;42.43;94758.94;4218062;28;20060;-73
2021/03/09 06:07:42;;;;;;;42.53;22.85;;;;;;;4.22;42.00;94760.25;4227316;28;20055;-71
2021/03/09 06:09:44;;;;;;;43.90;22.55;;;;;;;4.37;41.91;94766.00;4240916;27;20054;-72
2021/03/09 06:12:06;;;;;;;41.55;22.45;;;;;;;4.54;41.52;94769.03;4212421;28;20555;-73
2021/03/09 06:14:15;;;;;;;40.72;23.13;;;;;;;4.64;41.06;94773.38;4210252;28;20051;-72
2021/03/09 06:16:17;;;;;;;44.75;25.42;;;;;;;4.69;40.62;94778.22;4209786;28;20044;-72
2021/03/09 06:18:23;;;;;;;42.63;24.83;;;;;;;4.76;40.90;94775.97;4194096;28;20143;-71
2021/03/09 06:20:29;;;;;;;41.05;23.65;;;;;;;4.83;39.96;94788.31;4230649;28;20104;-71
2021/03/09 06:22:44;;;;;;;34.58;19.55;;;;;;;4.89;38.78;94785.25;4229449;28;20052;-74
2021/03/09 06:24:47;;;;;;;34.13;19.45;;;;;;;4.95;39.08;94793.47;4199257;28;20046;-71
2021/03/09 06:26:49;;;;;;;36.47;20.30;;;;;;;5.07;38.31;94789.91;4219340;28;20051;-73
2021/03/09 06:29:09;;;;;;;41.42;18.88;;;;;;;4.78;37.95;94797.44;4228720;28;20047;-72
2021/03/09 06:31:11;;;;;;;32.20;18.50;;;;;;;4.55;38.90;94794.03;4231329;28;20044;-89
2021/03/09 06:33:26;;;;;;;34.17;19.45;;;;;;;4.36;39.70;94799.84;4234605;28;20043;-88
2021/03/09 06:35:27;;;;;;;35.63;18.95;;;;;;;4.14;40.30;94791.13;4233944;28;20406;-88
2021/03/09 06:37:29;;;;;;;41.10;19.88;;;;;;;4.32;40.00;94794.06;4234121;28;20043;-89
2021/03/09 06:40:03;;;;;;;31.70;19.83;;;;;;;4.33;40.24;94790.53;4215777;28;20055;-89
2021/03/09 06:42:05;;;;;;;42.92;20.42;;;;;;;4.47;40.19;94798.06;4228577;27;20413;-85
2021/03/09 06:44:06;;;;;;;34.28;17.95;;;;;;;4.65;39.00;94803.59;4244191;27;20214;-91
2021/03/09 06:46:10;;;;;;;38.30;18.88;;;;;;;4.82;38.22;94804.84;4238916;27;20048;-85
2021/03/09 06:48:22;;;;;;;38.20;17.83;;;;;;;5.06;37.94;94801.25;4215191;28;20102;-87
2021/03/09 06:50:35;;;;;;;30.65;17.15;;;;;;;5.31;38.41;94800.94;4219483;28;20048;-89
2021/03/09 06:52:37;;;;;;;40.15;19.00;;;;;;;5.48;37.47;94801.31;4222943;28;20089;-85
2021/03/09 06:54:50;;;;;;;37.45;18.73;;;;;;;5.53;37.17;94801.78;4210551;28;20399;-86
2021/03/09 06:56:51;;;;;;;40.40;16.98;;;;;;;5.70;37.27;94798.59;4226781;28;20621;-70
2021/03/09 06:58:52;;;;;;;33.75;18.85;;;;;;;5.74;38.26;94806.97;4210121;28;20048;-73
2021/03/09 07:00:54;;;;;;;30.77;18.85;;;;;;;5.77;37.53;94803.31;4210498;28;20069;-72
2021/03/09 07:02:55;;;;;;;34.15;19.10;;;;;;;5.80;37.32;94793.47;4226933;28;20635;-72
2021/03/09 07:05:08;;;;;;;44.35;19.83;;;;;;;5.93;37.98;94798.47;4210718;28;20040;-71
2021/03/09 07:07:11;;;;;;;35.88;18.17;;;;;;;6.07;37.31;94799.94;4204186;28;20055;-71
2021/03/09 07:09:13;;;;;;;32.63;18.02;;;;;;;6.15;35.74;94802.69;4209778;28;20067;-71
2021/03/09 07:11:14;;;;;;;32.03;18.08;;;;;;;6.25;34.84;94802.75;4228830;28;20060;-74
2021/03/09 07:13:18;;;;;;;30.42;16.90;;;;;;;6.27;34.57;94798.25;4209437;28;20052;-73
2021/03/09 07:15:20;;;;;;;35.47;17.83;;;;;;;6.35;34.50;94801.03;4177515;28;20080;-74
2021/03/09 07:17:23;;;;;;;26.70;16.05;;;;;;;6.53;34.58;94809.84;4191961;28;20048;-73
2021/03/09 07:19:36;;;;;;;30.75;17.98;;;;;;;6.65;34.73;94812.38;4160224;28;20049;-72
2021/03/09 07:21:38;;;;;;;31.77;18.33;;;;;;;6.57;34.97;94816.44;4195347;28;20048;-73
2021/03/09 07:23:40;;;;;;;34.45;18.92;;;;;;;6.61;34.16;94818.81;4193823;28;20327;-73
2021/03/09 07:25:41;;;;;;;30.83;17.55;;;;;;;6.27;34.79;94822.50;4193887;28;20439;-72
2021/03/09 07:27:48;;;;;;;30.73;16.20;;;;;;;5.87;35.43;94818.00;4185505;28;20056;-72
2021/03/09 07:29:55;;;;;;;25.88;15.52;;;;;;;5.91;35.76;94811.56;4194857;28;20044;-72
2021/03/09 07:31:57;;;;;;;26.80;16.25;;;;;;;5.71;36.20;94821.03;4192156;28;20052;-72
2021/03/09 07:33:59;;;;;;;33.47;15.68;;;;;;;5.65;36.02;94821.53;4192965;28;20044;-72
2021/03/09 07:36:11;;;;;;;24.92;15.88;;;;;;;5.44;37.23;94821.53;4194834;28;20105;-72
2021/03/09 07:38:19;;;;;;;30.13;15.75;;;;;;;5.55;37.37;94812.88;4179766;28;20048;-73
2021/03/09 07:40:23;;;;;;;32.10;16.40;;;;;;;5.73;36.91;94808.75;4194619;28;20431;-72
2021/03/09 07:42:25;;;;;;;31.25;16.10;;;;;;;5.90;36.52;94806.53;4194422;28;20052;-70
2021/03/09 07:44:26;;;;;;;27.27;14.65;;;;;;;5.70;36.04;94813.34;4188740;28;20519;-72
2021/03/09 07:46:27;;;;;;;28.20;16.77;;;;;;;5.64;36.91;94817.31;4192441;28;20044;-71
2021/03/09 07:48:28;;;;;;;30.77;15.93;;;;;;;5.60;37.26;94810.72;4192851;28;20027;-72
2021/03/09 07:50:39;;;;;;;23.88;14.80;;;;;;;5.48;37.25;94816.91;4210702;28;20443;-72
2021/03/09 07:53:06;;;;;;;28.77;17.00;;;;;;;5.69;37.22;94814.31;4223556;28;20096;-70
2021/03/09 07:55:06;;;;;;;26.60;17.02;;;;;;;5.75;36.98;94809.44;4193181;28;20518;-72
2021/03/09 07:57:21;;;;;;;28.67;16.92;;;;;;;5.87;36.86;94797.22;4189482;28;20085;-72
2021/03/09 07:59:22;;;;;;;27.17;16.90;;;;;;;5.61;36.90;94801.94;4193232;28;20048;-87
2021/03/09 08:01:43;;;;;;;30.42;17.35;;;;;;;5.53;37.11;94802.59;4194556;28;20036;-87
2021/03/09 08:03:46;;;;;;;26.92;14.80;;;;;;;5.49;37.53;94802.97;4190550;28;20466;-87
2021/03/09 08:05:58;;;;;;;30.20;16.80;;;;;;;5.60;37.63;94805.50;4181849;28;20037;-85
2021/03/09 08:08:03;;;;;;;35.72;18.23;;;;;;;5.87;37.07;94798.97;4203281;28;20028;-86
2021/03/09 08:10:04;;;;;;;29.42;17.15;;;;;;;5.78;37.21;94797.97;4199015;28;20119;-86
2021/03/09 08:12:22;;;;;;;27.42;17.05;;;;;;;5.77;36.99;94790.31;4197870;28;20036;-87
2021/03/09 08:14:28;;;;;;;28.58;16.23;;;;;;;5.83;37.04;94797.56;4209996;28;20072;-89
2021/03/09 08:16:31;;;;;;;24.10;15.45;;;;;;;5.92;36.81;94796.81;4214082;28;20535;-89
2021/03/09 08:18:40;;;;;;;30.40;17.95;;;;;;;5.88;36.85;94792.84;4229322;28;20066;-88
2021/03/09 08:20:53;;;;;;;33.22;19.20;;;;;;;6.17;36.45;94792.19;4222136;28;20050;-86
2021/03/09 08:22:59;;;;;;;28.02;18.13;;;;;;;6.20;36.79;94787.56;4212822;28;20055;-86
2021/03/09 08:25:01;;;;;;;30.90;18.80;;;;;;;6.34;36.87;94792.38;4222958;28;20483;-86
2021/03/09 08:27:01;;;;;;;45.28;19.80;;;;;;;6.37;36.39;94793.94;4216505;28;20059;-87
2021/03/09 08:29:28;;;;;;;32.75;19.45;;;;;;;6.56;36.38;94786.19;4230069;28;20067;-88
2021/03/09 08:31:29;;;;;;;29.05;18.60;;;;;;;6.85;36.26;94788.03;4219873;28;20047;-88
2021/03/09 08:33:31;;;;;;;31.55;20.10;;;;;;;7.08;35.95;94790.41;4224239;28;20044;-87
2021/03/09 08:35:34;;;;;;;34.00;19.08;;;;;;;6.83;35.80;94789.94;4224244;28;20167;-85
2021/03/09 08:37:42;;;;;;;29.57;18.97;;;;;;;7.00;35.96;94790.25;4223737;28;20052;-86
2021/03/09 08:40:10;;;;;;;27.33;18.00;;;;;;;7.25;35.54;94768.03;4217884;28;20280;-74
2021/03/09 08:42:16;;;;;;;28.50;18.90;;;;;;;7.41;35.07;94760.50;4208370;28;20126;-74
2021/03/09 08:44:19;;;;;;;30.25;19.40;;;;;;;7.48;34.64;94772.03;4189344;28;20390;-74
2021/03/09 08:46:27;;;;;;;30.55;18.50;;;;;;;7.49;34.34;94770.25;4213071;28;20240;-72
2021/03/09 08:49:00;;;;;;;28.75;17.88;;;;;;;7.51;34.44;94776.16;4215285;28;20048;-73
2021/03/09 08:51:29;;;;;;;27.63;17.45;;;;;;;7.42;34.31;94774.34;4193807;28;20080;-73
2021/03/09 08:53:36;;;;;;;29.02;18.33;;;;;;;7.59;34.81;94784.94;4205844;28;20127;-71
2021/03/09 08:55:37;;;;;;;31.05;18.15;;;;;;;7.73;34.54;94783.66;4195995;28;20091;-71
2021/03/09 08:57:40;;;;;;;29.05;16.90;;;;;;;7.78;34.44;94776.25;4200404;28;20475;-70
2021/03/09 08:59:43;;;;;;;27.65;17.08;;;;;;;7.78;34.73;94776.25;4203350;28;20052;-72
2021/03/09 09:01:44;;;;;;;25.17;16.55;;;;;;;7.83;34.53;94778.44;4208056;28;20048;-70
2021/03/09 09:03:45;;;;;;;23.35;15.30;;;;;;;7.26;33.96;94780.94;4191845;28;20499;-71
2021/03/09 09:05:52;;;;;;;22.85;15.35;;;;;;;7.08;34.80;94782.59;4214912;28;20052;-71
2021/03/09 09:07:54;;;;;;;63.53;35.22;;;;;;;7.27;34.63;94772.19;4210021;28;20259;-72
2021/03/09 09:10:04;;;;;;;27.13;16.40;;;;;;;7.33;34.62;94776.81;4208668;28;20055;-73
2021/03/09 09:12:32;;;;;;;25.33;16.20;;;;;;;7.41;34.80;94773.53;4193092;28;20071;-73
2021/03/09 09:14:34;;;;;;;31.38;15.95;;;;;;;7.57;34.46;94778.19;4205315;28;20123;-72
2021/03/09 09:16:39;;;;;;;23.23;15.82;;;;;;;7.32;34.12;94777.78;4201135;28;20495;-73
2021/03/09 09:18:40;;;;;;;27.52;17.02;;;;;;;7.20;34.47;94781.50;4214158;28;20052;-70
2021/03/09 09:20:52;;;;;;;28.17;16.60;;;;;;;7.12;34.55;94779.59;4209280;28;20044;-72
2021/03/09 09:22:54;;;;;;;25.40;14.88;;;;;;;6.83;34.92;94776.09;4210719;28;20044;-72
2021/03/09 09:25:22;;;;;;;23.27;15.85;;;;;;;6.84;35.13;94778.59;4212751;28;20132;-72
2021/03/09 09:27:24;;;;;;;27.90;15.52;;;;;;;6.73;35.26;94770.88;4220731;28;20048;-72
2021/03/09 09:29:25;;;;;;;27.38;16.17;;;;;;;6.95;34.67;94773.25;4209185;28;20048;-73
2021/03/09 09:31:26;;;;;;;33.00;18.48;;;;;;;7.10;34.86;94770.25;4193597;28;20052;-72
2021/03/09 09:33:32;;;;;;;22.33;15.20;;;;;;;7.08;34.60;94766.97;4215444;28;20056;-73
2021/03/09 09:35:34;;;;;;;26.25;15.52;;;;;;;7.30;34.40;94769.28;4211816;28;20557;-73
2021/03/09 09:37:43;;;;;;;24.95;16.20;;;;;;;7.56;34.36;94768.72;4218442;28;20109;-71
2021/03/09 09:39:45;;;;;;;25.20;15.90;;;;;;;7.80;34.21;94766.50;4218114;28;20078;-73
2021/03/09 09:41:51;;;;;;;23.52;15.40;;;;;;;8.01;33.85;94770.72;4212409;28;20511;-73